sensor_id;sensor_type;location;lat;lon;timestamp;temperature;humidity
9125;DHT22;4597;48.730;9.114;2022-09-16T00:01:19;14.30;99.90
9125;DHT22;4597;48.730;9.114;2022-09-16T00:03:45;14.20;99.90
9125;DHT22;4597;48.730;9.114;2022-09-16T00:06:23;14.30;99.90
9125;DHT22;4597;48.730;9.114;2022-09-16T00:08:49;14.30;99.90
9125;DHT22;4597;48.730;9.114;2022-09-16T00:11:16;14.30;99.90
9125;DHT22;4597;48.730;9.114;2022-09-16T00:13:42;14.30;99.90
9125;DHT22;4597;48.730;9.114;2022-09-16T00:16:15;14.30;99.90
9125;DHT22;4597;48.730;9.114;2022-09-16T00:18:41;14.30;99.90
9125;DHT22;4597;48.730;9.114;2022-09-16T00:21:08;14.30;99.90
9125;DHT22;4597;48.730;9.114;2022-09-16T00:23:35;14.30;99.90
9125;DHT22;4597;48.730;9.114;2022-09-16T00:26:01;14.30;99.90
9125;DHT22;4597;48.730;9.114;2022-09-16T00:28:27;14.30;99.90
9125;DHT22;4597;48.730;9.114;2022-09-16T00:30:52;14.30;99.90
9125;DHT22;4597;48.730;9.114;2022-09-16T00:33:19;14.30;99.90
9125;DHT22;4597;48.730;9.114;2022-09-16T00:35:45;14.30;99.90
9125;DHT22;4597;48.730;9.114;2022-09-16T00:38:11;14.30;99.90
9125;DHT22;4597;48.730;9.114;2022-09-16T00:40:48;14.30;99.90
9125;DHT22;4597;48.730;9.114;2022-09-16T00:43:16;14.30;99.90
9125;DHT22;4597;48.730;9.114;2022-09-16T00:45:45;14.30;99.90
9125;DHT22;4597;48.730;9.114;2022-09-16T00:48:18;14.30;99.90
9125;DHT22;4597;48.730;9.114;2022-09-16T00:50:51;14.30;99.90
9125;DHT22;4597;48.730;9.114;2022-09-16T00:53:21;14.30;99.90
9125;DHT22;4597;48.730;9.114;2022-09-16T00:55:48;14.20;99.90
9125;DHT22;4597;48.730;9.114;2022-09-16T00:58:21;14.20;99.90
9125;DHT22;4597;48.730;9.114;2022-09-16T01:00:49;14.20;99.90
9125;DHT22;4597;48.730;9.114;2022-09-16T01:03:15;14.10;99.90
9125;DHT22;4597;48.730;9.114;2022-09-16T01:05:41;14.20;99.90
9125;DHT22;4597;48.730;9.114;2022-09-16T01:08:07;14.10;99.90
9125;DHT22;4597;48.730;9.114;2022-09-16T01:10:33;14.10;99.90
9125;DHT22;4597;48.730;9.114;2022-09-16T01:13:04;14.10;99.90
9125;DHT22;4597;48.730;9.114;2022-09-16T01:15:39;14.10;99.90
9125;DHT22;4597;48.730;9.114;2022-09-16T01:18:35;14.10;99.90
9125;DHT22;4597;48.730;9.114;2022-09-16T01:21:08;14.10;99.90
9125;DHT22;4597;48.730;9.114;2022-09-16T01:32:57;14.20;99.90
9125;DHT22;4597;48.730;9.114;2022-09-16T01:36:02;14.20;99.90
9125;DHT22;4597;48.730;9.114;2022-09-16T01:38:59;14.10;99.90
9125;DHT22;4597;48.730;9.114;2022-09-16T01:41:35;14.10;99.90
9125;DHT22;4597;48.730;9.114;2022-09-16T01:44:27;14.10;99.90
9125;DHT22;4597;48.730;9.114;2022-09-16T01:49:44;14.00;99.90
9125;DHT22;4597;48.730;9.114;2022-09-16T01:52:24;14.00;99.90
9125;DHT22;4597;48.730;9.114;2022-09-16T01:55:17;14.00;99.90
9125;DHT22;4597;48.730;9.114;2022-09-16T02:00:29;13.90;99.90
9125;DHT22;4597;48.730;9.114;2022-09-16T02:03:06;13.90;99.90
9125;DHT22;4597;48.730;9.114;2022-09-16T02:05:53;13.80;99.90
9125;DHT22;4597;48.730;9.114;2022-09-16T02:08:25;13.70;99.90
9125;DHT22;4597;48.730;9.114;2022-09-16T02:10:58;13.70;99.90
9125;DHT22;4597;48.730;9.114;2022-09-16T02:13:44;13.70;99.90
9125;DHT22;4597;48.730;9.114;2022-09-16T02:16:17;13.60;99.90
9125;DHT22;4597;48.730;9.114;2022-09-16T02:18:51;13.60;99.90
9125;DHT22;4597;48.730;9.114;2022-09-16T02:21:18;13.60;99.90
9125;DHT22;4597;48.730;9.114;2022-09-16T02:23:54;13.60;99.90
9125;DHT22;4597;48.730;9.114;2022-09-16T02:26:25;13.50;99.90
9125;DHT22;4597;48.730;9.114;2022-09-16T02:28:53;13.50;99.90
9125;DHT22;4597;48.730;9.114;2022-09-16T02:31:23;13.50;99.90
9125;DHT22;4597;48.730;9.114;2022-09-16T02:33:54;13.50;99.90
9125;DHT22;4597;48.730;9.114;2022-09-16T02:36:22;13.50;99.90
9125;DHT22;4597;48.730;9.114;2022-09-16T02:38:58;13.50;99.90
9125;DHT22;4597;48.730;9.114;2022-09-16T02:41:26;13.50;99.90
9125;DHT22;4597;48.730;9.114;2022-09-16T02:43:52;13.50;99.90
9125;DHT22;4597;48.730;9.114;2022-09-16T02:46:27;13.50;99.90
9125;DHT22;4597;48.730;9.114;2022-09-16T02:49:25;13.50;99.90
9125;DHT22;4597;48.730;9.114;2022-09-16T02:51:58;13.60;99.90
9125;DHT22;4597;48.730;9.114;2022-09-16T02:54:39;13.50;99.90
9125;DHT22;4597;48.730;9.114;2022-09-16T02:57:06;13.50;99.90
9125;DHT22;4597;48.730;9.114;2022-09-16T02:59:32;13.50;99.90
9125;DHT22;4597;48.730;9.114;2022-09-16T03:01:58;13.50;99.90
9125;DHT22;4597;48.730;9.114;2022-09-16T03:04:25;13.50;99.90
9125;DHT22;4597;48.730;9.114;2022-09-16T03:06:50;13.50;99.90
9125;DHT22;4597;48.730;9.114;2022-09-16T03:09:16;13.50;99.90
9125;DHT22;4597;48.730;9.114;2022-09-16T03:17:40;13.60;99.90
9125;DHT22;4597;48.730;9.114;2022-09-16T03:25:52;13.60;99.90
9125;DHT22;4597;48.730;9.114;2022-09-16T03:28:33;13.60;99.90
9125;DHT22;4597;48.730;9.114;2022-09-16T03:31:18;13.70;99.90
9125;DHT22;4597;48.730;9.114;2022-09-16T03:36:38;13.60;99.90
9125;DHT22;4597;48.730;9.114;2022-09-16T03:39:05;13.60;99.90
9125;DHT22;4597;48.730;9.114;2022-09-16T03:41:32;13.60;99.90
9125;DHT22;4597;48.730;9.114;2022-09-16T03:43:59;13.60;99.90
9125;DHT22;4597;48.730;9.114;2022-09-16T03:46:25;13.60;99.90
9125;DHT22;4597;48.730;9.114;2022-09-16T03:48:56;13.60;99.90
9125;DHT22;4597;48.730;9.114;2022-09-16T03:51:22;13.60;99.90
9125;DHT22;4597;48.730;9.114;2022-09-16T03:53:49;13.60;99.90
9125;DHT22;4597;48.730;9.114;2022-09-16T03:56:15;13.60;99.90
9125;DHT22;4597;48.730;9.114;2022-09-16T03:58:40;13.70;99.90
9125;DHT22;4597;48.730;9.114;2022-09-16T04:01:06;13.60;99.90
9125;DHT22;4597;48.730;9.114;2022-09-16T04:03:32;13.70;99.90
9125;DHT22;4597;48.730;9.114;2022-09-16T04:05:57;13.60;99.90
9125;DHT22;4597;48.730;9.114;2022-09-16T04:08:23;13.60;99.90
9125;DHT22;4597;48.730;9.114;2022-09-16T04:11:00;13.60;99.90
9125;DHT22;4597;48.730;9.114;2022-09-16T04:13:29;13.60;99.90
9125;DHT22;4597;48.730;9.114;2022-09-16T04:15:55;13.60;99.90
9125;DHT22;4597;48.730;9.114;2022-09-16T04:18:21;13.60;99.90
9125;DHT22;4597;48.730;9.114;2022-09-16T04:20:46;13.60;99.90
9125;DHT22;4597;48.730;9.114;2022-09-16T04:23:12;13.60;99.90
9125;DHT22;4597;48.730;9.114;2022-09-16T04:25:38;13.60;99.90
9125;DHT22;4597;48.730;9.114;2022-09-16T04:28:05;13.60;99.90
9125;DHT22;4597;48.730;9.114;2022-09-16T04:30:31;13.60;99.90
9125;DHT22;4597;48.730;9.114;2022-09-16T04:32:57;13.60;99.90
9125;DHT22;4597;48.730;9.114;2022-09-16T04:35:23;13.50;99.90
9125;DHT22;4597;48.730;9.114;2022-09-16T04:37:50;13.50;99.90
9125;DHT22;4597;48.730;9.114;2022-09-16T04:40:16;13.50;99.90
9125;DHT22;4597;48.730;9.114;2022-09-16T04:42:48;13.60;99.90
9125;DHT22;4597;48.730;9.114;2022-09-16T04:45:13;13.60;99.90
9125;DHT22;4597;48.730;9.114;2022-09-16T04:47:39;13.60;99.90
9125;DHT22;4597;48.730;9.114;2022-09-16T04:50:05;13.60;99.90
9125;DHT22;4597;48.730;9.114;2022-09-16T04:52:31;13.60;99.90
9125;DHT22;4597;48.730;9.114;2022-09-16T04:54:56;13.60;99.90
9125;DHT22;4597;48.730;9.114;2022-09-16T04:57:22;13.60;99.90
9125;DHT22;4597;48.730;9.114;2022-09-16T04:59:47;13.60;99.90
9125;DHT22;4597;48.730;9.114;2022-09-16T05:02:13;13.60;99.90
9125;DHT22;4597;48.730;9.114;2022-09-16T05:04:38;13.60;99.90
9125;DHT22;4597;48.730;9.114;2022-09-16T05:07:04;13.60;99.90
9125;DHT22;4597;48.730;9.114;2022-09-16T05:09:29;13.60;99.90
9125;DHT22;4597;48.730;9.114;2022-09-16T05:11:55;13.60;99.90
9125;DHT22;4597;48.730;9.114;2022-09-16T05:14:20;13.60;99.90
9125;DHT22;4597;48.730;9.114;2022-09-16T05:16:46;13.60;99.90
9125;DHT22;4597;48.730;9.114;2022-09-16T05:19:12;13.50;99.90
9125;DHT22;4597;48.730;9.114;2022-09-16T05:21:39;13.50;99.90
9125;DHT22;4597;48.730;9.114;2022-09-16T05:24:07;13.50;99.90
9125;DHT22;4597;48.730;9.114;2022-09-16T05:26:34;13.50;99.90
9125;DHT22;4597;48.730;9.114;2022-09-16T05:29:01;13.60;99.90
9125;DHT22;4597;48.730;9.114;2022-09-16T05:31:30;13.60;99.90
9125;DHT22;4597;48.730;9.114;2022-09-16T05:34:01;13.60;99.90
9125;DHT22;4597;48.730;9.114;2022-09-16T05:36:29;13.60;99.90
9125;DHT22;4597;48.730;9.114;2022-09-16T05:38:55;13.60;99.90
9125;DHT22;4597;48.730;9.114;2022-09-16T05:41:22;13.60;99.90
9125;DHT22;4597;48.730;9.114;2022-09-16T05:43:48;13.60;99.90
9125;DHT22;4597;48.730;9.114;2022-09-16T05:46:19;13.60;99.90
9125;DHT22;4597;48.730;9.114;2022-09-16T05:48:45;13.60;99.90
9125;DHT22;4597;48.730;9.114;2022-09-16T05:51:14;13.60;99.90
9125;DHT22;4597;48.730;9.114;2022-09-16T05:53:40;13.60;99.90
9125;DHT22;4597;48.730;9.114;2022-09-16T05:56:07;13.60;99.90
9125;DHT22;4597;48.730;9.114;2022-09-16T05:58:34;13.60;99.90
9125;DHT22;4597;48.730;9.114;2022-09-16T06:01:03;13.60;99.90
9125;DHT22;4597;48.730;9.114;2022-09-16T06:03:30;13.60;99.90
9125;DHT22;4597;48.730;9.114;2022-09-16T06:06:22;13.60;99.90
9125;DHT22;4597;48.730;9.114;2022-09-16T06:08:49;13.60;99.90
9125;DHT22;4597;48.730;9.114;2022-09-16T06:11:15;13.60;99.90
9125;DHT22;4597;48.730;9.114;2022-09-16T06:13:41;13.60;99.90
9125;DHT22;4597;48.730;9.114;2022-09-16T06:16:08;13.60;99.90
9125;DHT22;4597;48.730;9.114;2022-09-16T06:18:34;13.60;99.90
9125;DHT22;4597;48.730;9.114;2022-09-16T06:21:09;13.60;99.90
9125;DHT22;4597;48.730;9.114;2022-09-16T06:23:36;13.70;99.90
9125;DHT22;4597;48.730;9.114;2022-09-16T06:26:07;13.70;99.90
9125;DHT22;4597;48.730;9.114;2022-09-16T06:28:33;13.60;99.90
9125;DHT22;4597;48.730;9.114;2022-09-16T06:33:30;13.60;99.90
9125;DHT22;4597;48.730;9.114;2022-09-16T06:35:56;13.60;99.90
9125;DHT22;4597;48.730;9.114;2022-09-16T06:38:22;13.60;99.90
9125;DHT22;4597;48.730;9.114;2022-09-16T06:40:48;13.70;99.90
9125;DHT22;4597;48.730;9.114;2022-09-16T06:43:15;13.60;99.90
9125;DHT22;4597;48.730;9.114;2022-09-16T06:45:40;13.60;99.90
9125;DHT22;4597;48.730;9.114;2022-09-16T06:48:06;13.60;99.90
9125;DHT22;4597;48.730;9.114;2022-09-16T06:50:31;13.60;99.90
9125;DHT22;4597;48.730;9.114;2022-09-16T06:52:57;13.60;99.90
9125;DHT22;4597;48.730;9.114;2022-09-16T06:55:22;13.60;99.90
9125;DHT22;4597;48.730;9.114;2022-09-16T06:57:48;13.60;99.90
9125;DHT22;4597;48.730;9.114;2022-09-16T07:00:13;13.60;99.90
9125;DHT22;4597;48.730;9.114;2022-09-16T07:02:39;13.50;99.90
9125;DHT22;4597;48.730;9.114;2022-09-16T07:05:05;13.50;99.90
9125;DHT22;4597;48.730;9.114;2022-09-16T07:07:30;13.40;99.90
9125;DHT22;4597;48.730;9.114;2022-09-16T07:09:56;13.40;99.90
9125;DHT22;4597;48.730;9.114;2022-09-16T07:12:23;13.30;99.90
9125;DHT22;4597;48.730;9.114;2022-09-16T07:14:48;13.40;99.90
9125;DHT22;4597;48.730;9.114;2022-09-16T07:17:14;13.50;99.90
9125;DHT22;4597;48.730;9.114;2022-09-16T07:19:39;13.50;99.90
9125;DHT22;4597;48.730;9.114;2022-09-16T07:22:06;13.60;99.90
9125;DHT22;4597;48.730;9.114;2022-09-16T07:24:32;13.70;99.90
9125;DHT22;4597;48.730;9.114;2022-09-16T07:26:57;13.70;99.90
9125;DHT22;4597;48.730;9.114;2022-09-16T07:29:23;13.70;99.90
9125;DHT22;4597;48.730;9.114;2022-09-16T07:31:48;13.70;99.90
9125;DHT22;4597;48.730;9.114;2022-09-16T07:34:14;13.60;99.90
9125;DHT22;4597;48.730;9.114;2022-09-16T07:36:42;13.60;99.90
9125;DHT22;4597;48.730;9.114;2022-09-16T07:39:08;13.50;99.90
9125;DHT22;4597;48.730;9.114;2022-09-16T07:41:37;13.60;99.90
9125;DHT22;4597;48.730;9.114;2022-09-16T07:44:04;13.60;99.90
9125;DHT22;4597;48.730;9.114;2022-09-16T07:46:32;13.50;99.90
9125;DHT22;4597;48.730;9.114;2022-09-16T07:49:00;13.50;99.90
9125;DHT22;4597;48.730;9.114;2022-09-16T07:51:27;13.60;99.90
9125;DHT22;4597;48.730;9.114;2022-09-16T07:54:04;13.80;99.90
9125;DHT22;4597;48.730;9.114;2022-09-16T07:56:32;13.70;99.90
9125;DHT22;4597;48.730;9.114;2022-09-16T07:58:59;13.80;99.90
9125;DHT22;4597;48.730;9.114;2022-09-16T08:01:26;13.80;99.90
9125;DHT22;4597;48.730;9.114;2022-09-16T08:03:52;13.80;99.90
9125;DHT22;4597;48.730;9.114;2022-09-16T08:06:23;13.80;99.90
9125;DHT22;4597;48.730;9.114;2022-09-16T08:08:54;13.80;99.90
9125;DHT22;4597;48.730;9.114;2022-09-16T08:11:20;13.90;99.90
9125;DHT22;4597;48.730;9.114;2022-09-16T08:13:46;13.80;99.90
9125;DHT22;4597;48.730;9.114;2022-09-16T08:16:18;13.80;99.90
9125;DHT22;4597;48.730;9.114;2022-09-16T08:18:45;13.90;99.90
9125;DHT22;4597;48.730;9.114;2022-09-16T08:21:13;13.80;99.90
9125;DHT22;4597;48.730;9.114;2022-09-16T08:23:40;13.90;99.90
9125;DHT22;4597;48.730;9.114;2022-09-16T08:26:07;13.90;99.90
9125;DHT22;4597;48.730;9.114;2022-09-16T08:28:33;13.90;99.90
9125;DHT22;4597;48.730;9.114;2022-09-16T08:31:00;13.90;99.90
9125;DHT22;4597;48.730;9.114;2022-09-16T08:33:27;13.80;99.90
9125;DHT22;4597;48.730;9.114;2022-09-16T08:35:59;13.90;99.90
9125;DHT22;4597;48.730;9.114;2022-09-16T08:38:25;13.90;99.90
9125;DHT22;4597;48.730;9.114;2022-09-16T08:49:34;14.00;99.90
9125;DHT22;4597;48.730;9.114;2022-09-16T08:52:07;14.00;99.90
9125;DHT22;4597;48.730;9.114;2022-09-16T08:54:44;14.10;99.90
9125;DHT22;4597;48.730;9.114;2022-09-16T08:57:20;14.10;99.90
9125;DHT22;4597;48.730;9.114;2022-09-16T08:59:54;14.20;99.90
9125;DHT22;4597;48.730;9.114;2022-09-16T09:04:55;14.20;99.90
9125;DHT22;4597;48.730;9.114;2022-09-16T09:10:41;14.20;99.90
9125;DHT22;4597;48.730;9.114;2022-09-16T09:26:51;14.50;99.90
9125;DHT22;4597;48.730;9.114;2022-09-16T09:32:35;14.70;99.90
9125;DHT22;4597;48.730;9.114;2022-09-16T09:38:31;14.90;99.90
9125;DHT22;4597;48.730;9.114;2022-09-16T09:41:17;15.00;99.90
9125;DHT22;4597;48.730;9.114;2022-09-16T09:43:54;14.90;99.90
9125;DHT22;4597;48.730;9.114;2022-09-16T09:46:26;14.90;99.90
9125;DHT22;4597;48.730;9.114;2022-09-16T09:49:08;14.80;99.90
9125;DHT22;4597;48.730;9.114;2022-09-16T09:51:42;14.80;99.90
9125;DHT22;4597;48.730;9.114;2022-09-16T10:00:02;14.60;99.90
9125;DHT22;4597;48.730;9.114;2022-09-16T10:02:39;14.60;99.90
9125;DHT22;4597;48.730;9.114;2022-09-16T10:05:08;14.60;99.90
9125;DHT22;4597;48.730;9.114;2022-09-16T10:07:39;14.60;99.90
9125;DHT22;4597;48.730;9.114;2022-09-16T10:10:24;14.60;99.90
9125;DHT22;4597;48.730;9.114;2022-09-16T10:12:51;14.60;99.90
9125;DHT22;4597;48.730;9.114;2022-09-16T10:15:27;14.60;99.90
9125;DHT22;4597;48.730;9.114;2022-09-16T10:17:53;14.70;99.90
9125;DHT22;4597;48.730;9.114;2022-09-16T10:20:37;14.50;99.90
9125;DHT22;4597;48.730;9.114;2022-09-16T10:23:14;14.50;99.90
9125;DHT22;4597;48.730;9.114;2022-09-16T10:25:41;14.40;99.90
9125;DHT22;4597;48.730;9.114;2022-09-16T10:28:21;14.50;99.90
9125;DHT22;4597;48.730;9.114;2022-09-16T10:30:50;14.50;99.90
9125;DHT22;4597;48.730;9.114;2022-09-16T10:33:43;14.50;99.90
9125;DHT22;4597;48.730;9.114;2022-09-16T10:36:20;14.40;99.90
9125;DHT22;4597;48.730;9.114;2022-09-16T10:38:50;14.40;99.90
9125;DHT22;4597;48.730;9.114;2022-09-16T10:41:40;14.40;99.90
9125;DHT22;4597;48.730;9.114;2022-09-16T10:44:47;14.40;99.90
9125;DHT22;4597;48.730;9.114;2022-09-16T10:47:23;14.40;99.90
9125;DHT22;4597;48.730;9.114;2022-09-16T10:49:55;14.20;99.90
9125;DHT22;4597;48.730;9.114;2022-09-16T10:52:29;14.20;99.90
9125;DHT22;4597;48.730;9.114;2022-09-16T10:54:56;14.20;99.90
9125;DHT22;4597;48.730;9.114;2022-09-16T10:57:23;14.20;99.90
9125;DHT22;4597;48.730;9.114;2022-09-16T11:00:13;14.20;99.90
9125;DHT22;4597;48.730;9.114;2022-09-16T11:22:35;14.30;99.90
9125;DHT22;4597;48.730;9.114;2022-09-16T11:25:19;14.40;99.90
9125;DHT22;4597;48.730;9.114;2022-09-16T11:30:29;14.40;99.90
9125;DHT22;4597;48.730;9.114;2022-09-16T11:36:04;14.70;99.90
9125;DHT22;4597;48.730;9.114;2022-09-16T11:41:24;14.90;99.90
9125;DHT22;4597;48.730;9.114;2022-09-16T11:49:51;15.20;99.90
9125;DHT22;4597;48.730;9.114;2022-09-16T11:58:04;15.20;99.90
9125;DHT22;4597;48.730;9.114;2022-09-16T12:00:32;15.20;99.90
9125;DHT22;4597;48.730;9.114;2022-09-16T12:03:31;15.20;99.90
9125;DHT22;4597;48.730;9.114;2022-09-16T12:06:05;15.20;99.90
9125;DHT22;4597;48.730;9.114;2022-09-16T12:08:59;15.30;99.90
9125;DHT22;4597;48.730;9.114;2022-09-16T12:11:50;15.40;99.90
9125;DHT22;4597;48.730;9.114;2022-09-16T12:14:37;15.50;99.90
9125;DHT22;4597;48.730;9.114;2022-09-16T12:17:19;15.50;99.90
9125;DHT22;4597;48.730;9.114;2022-09-16T12:19:49;15.60;99.90
9125;DHT22;4597;48.730;9.114;2022-09-16T12:22:21;15.70;99.90
9125;DHT22;4597;48.730;9.114;2022-09-16T12:25:01;15.90;99.90
9125;DHT22;4597;48.730;9.114;2022-09-16T12:27:48;16.10;99.90
9125;DHT22;4597;48.730;9.114;2022-09-16T12:30:21;16.30;99.90
9125;DHT22;4597;48.730;9.114;2022-09-16T12:32:58;16.40;99.90
9125;DHT22;4597;48.730;9.114;2022-09-16T12:35:31;16.50;99.90
9125;DHT22;4597;48.730;9.114;2022-09-16T12:37:57;16.70;99.90
9125;DHT22;4597;48.730;9.114;2022-09-16T12:40:30;16.80;99.90
9125;DHT22;4597;48.730;9.114;2022-09-16T13:02:27;17.90;99.90
9125;DHT22;4597;48.730;9.114;2022-09-16T13:04:56;17.90;99.90
9125;DHT22;4597;48.730;9.114;2022-09-16T13:07:27;17.90;99.90
9125;DHT22;4597;48.730;9.114;2022-09-16T13:10:14;18.20;99.90
9125;DHT22;4597;48.730;9.114;2022-09-16T13:12:41;18.40;99.90
9125;DHT22;4597;48.730;9.114;2022-09-16T13:15:24;18.60;99.90
9125;DHT22;4597;48.730;9.114;2022-09-16T13:17:50;18.30;99.90
9125;DHT22;4597;48.730;9.114;2022-09-16T13:20:29;18.50;99.90
9125;DHT22;4597;48.730;9.114;2022-09-16T13:23:16;18.60;99.90
9125;DHT22;4597;48.730;9.114;2022-09-16T13:26:01;19.00;99.90
9125;DHT22;4597;48.730;9.114;2022-09-16T13:28:41;19.00;99.90
9125;DHT22;4597;48.730;9.114;2022-09-16T13:33:38;19.20;99.90
9125;DHT22;4597;48.730;9.114;2022-09-16T13:41:27;18.50;99.60
9125;DHT22;4597;48.730;9.114;2022-09-16T13:43:53;18.30;99.70
9125;DHT22;4597;48.730;9.114;2022-09-16T13:46:36;18.10;99.90
9125;DHT22;4597;48.730;9.114;2022-09-16T13:51:27;17.70;99.90
9125;DHT22;4597;48.730;9.114;2022-09-16T13:53:54;17.60;99.90
9125;DHT22;4597;48.730;9.114;2022-09-16T14:00:16;18.00;99.90
9125;DHT22;4597;48.730;9.114;2022-09-16T14:13:12;17.00;99.90
9125;DHT22;4597;48.730;9.114;2022-09-16T14:15:45;16.90;99.90
9125;DHT22;4597;48.730;9.114;2022-09-16T14:18:13;17.20;99.90
9125;DHT22;4597;48.730;9.114;2022-09-16T14:21:03;17.90;99.90
9125;DHT22;4597;48.730;9.114;2022-09-16T14:23:30;18.80;99.90
9125;DHT22;4597;48.730;9.114;2022-09-16T14:26:07;19.30;99.90
9125;DHT22;4597;48.730;9.114;2022-09-16T14:28:33;19.90;99.90
9125;DHT22;4597;48.730;9.114;2022-09-16T14:31:00;20.60;99.90
9125;DHT22;4597;48.730;9.114;2022-09-16T14:33:35;21.00;97.20
9125;DHT22;4597;48.730;9.114;2022-09-16T14:36:09;21.40;94.80
9125;DHT22;4597;48.730;9.114;2022-09-16T14:47:05;21.90;77.70
9125;DHT22;4597;48.730;9.114;2022-09-16T14:49:35;21.90;76.10
9125;DHT22;4597;48.730;9.114;2022-09-16T14:52:02;21.40;77.00
9125;DHT22;4597;48.730;9.114;2022-09-16T14:54:29;20.60;78.10
9125;DHT22;4597;48.730;9.114;2022-09-16T14:57:00;19.80;80.00
9125;DHT22;4597;48.730;9.114;2022-09-16T14:59:30;19.90;78.00
9125;DHT22;4597;48.730;9.114;2022-09-16T15:02:44;20.10;78.80
9125;DHT22;4597;48.730;9.114;2022-09-16T15:04:47;21.30;76.30
9125;DHT22;4597;48.730;9.114;2022-09-16T15:07:22;22.90;69.50
9125;DHT22;4597;48.730;9.114;2022-09-16T15:10:06;23.20;61.00
9125;DHT22;4597;48.730;9.114;2022-09-16T15:12:51;22.30;64.00
9125;DHT22;4597;48.730;9.114;2022-09-16T15:15:33;21.30;65.60
9125;DHT22;4597;48.730;9.114;2022-09-16T15:20:30;23.80;59.70
9125;DHT22;4597;48.730;9.114;2022-09-16T15:22:57;25.60;50.70
9125;DHT22;4597;48.730;9.114;2022-09-16T15:25:25;27.00;46.40
9125;DHT22;4597;48.730;9.114;2022-09-16T15:28:06;27.30;42.00
9125;DHT22;4597;48.730;9.114;2022-09-16T15:30:33;27.60;37.90
9125;DHT22;4597;48.730;9.114;2022-09-16T15:32:58;27.90;36.30
9125;DHT22;4597;48.730;9.114;2022-09-16T15:35:25;27.30;36.10
9125;DHT22;4597;48.730;9.114;2022-09-16T15:37:52;26.40;38.60
9125;DHT22;4597;48.730;9.114;2022-09-16T15:45:34;24.00;44.30
9125;DHT22;4597;48.730;9.114;2022-09-16T15:48:03;23.40;44.90
9125;DHT22;4597;48.730;9.114;2022-09-16T15:50:40;22.60;46.10
9125;DHT22;4597;48.730;9.114;2022-09-16T15:53:14;22.10;47.10
9125;DHT22;4597;48.730;9.114;2022-09-16T15:56:06;21.50;46.70
9125;DHT22;4597;48.730;9.114;2022-09-16T16:04:20;21.10;47.80
9125;DHT22;4597;48.730;9.114;2022-09-16T16:06:18;21.00;45.60
9125;DHT22;4597;48.730;9.114;2022-09-16T16:08:49;20.40;48.50
9125;DHT22;4597;48.730;9.114;2022-09-16T16:11:19;19.70;49.80
9125;DHT22;4597;48.730;9.114;2022-09-16T16:13:46;19.20;52.30
9125;DHT22;4597;48.730;9.114;2022-09-16T16:16:13;18.70;53.50
9125;DHT22;4597;48.730;9.114;2022-09-16T16:18:41;18.50;55.80
9125;DHT22;4597;48.730;9.114;2022-09-16T16:21:10;18.20;55.70
9125;DHT22;4597;48.730;9.114;2022-09-16T16:23:36;17.90;57.00
9125;DHT22;4597;48.730;9.114;2022-09-16T16:26:04;17.80;58.00
9125;DHT22;4597;48.730;9.114;2022-09-16T16:28:29;17.70;60.00
9125;DHT22;4597;48.730;9.114;2022-09-16T16:31:14;17.60;64.30
9125;DHT22;4597;48.730;9.114;2022-09-16T16:33:44;17.50;67.60
9125;DHT22;4597;48.730;9.114;2022-09-16T16:36:14;17.50;73.70
9125;DHT22;4597;48.730;9.114;2022-09-16T16:38:41;17.30;81.10
9125;DHT22;4597;48.730;9.114;2022-09-16T16:41:07;17.20;87.20
9125;DHT22;4597;48.730;9.114;2022-09-16T16:43:33;17.10;87.50
9125;DHT22;4597;48.730;9.114;2022-09-16T16:45:59;16.90;90.40
9125;DHT22;4597;48.730;9.114;2022-09-16T16:48:28;16.80;92.30
9125;DHT22;4597;48.730;9.114;2022-09-16T16:50:58;16.70;93.30
9125;DHT22;4597;48.730;9.114;2022-09-16T16:53:24;16.50;93.10
9125;DHT22;4597;48.730;9.114;2022-09-16T16:55:49;16.50;93.50
9125;DHT22;4597;48.730;9.114;2022-09-16T16:58:15;16.40;94.70
9125;DHT22;4597;48.730;9.114;2022-09-16T17:00:40;16.30;95.10
9125;DHT22;4597;48.730;9.114;2022-09-16T17:03:06;16.10;97.20
9125;DHT22;4597;48.730;9.114;2022-09-16T17:05:32;16.10;99.10
9125;DHT22;4597;48.730;9.114;2022-09-16T17:07:57;15.90;99.90
9125;DHT22;4597;48.730;9.114;2022-09-16T17:10:23;15.90;99.90
9125;DHT22;4597;48.730;9.114;2022-09-16T17:12:48;15.80;99.90
9125;DHT22;4597;48.730;9.114;2022-09-16T17:15:14;15.70;99.90
9125;DHT22;4597;48.730;9.114;2022-09-16T17:17:39;15.60;99.90
9125;DHT22;4597;48.730;9.114;2022-09-16T17:20:06;15.40;99.90
9125;DHT22;4597;48.730;9.114;2022-09-16T17:22:31;15.40;99.90
9125;DHT22;4597;48.730;9.114;2022-09-16T17:24:57;15.30;99.90
9125;DHT22;4597;48.730;9.114;2022-09-16T17:27:22;15.20;99.90
9125;DHT22;4597;48.730;9.114;2022-09-16T17:29:51;15.20;99.90
9125;DHT22;4597;48.730;9.114;2022-09-16T17:32:16;15.20;99.90
9125;DHT22;4597;48.730;9.114;2022-09-16T17:34:42;15.10;99.90
9125;DHT22;4597;48.730;9.114;2022-09-16T17:37:07;15.10;99.90
9125;DHT22;4597;48.730;9.114;2022-09-16T17:39:33;15.10;99.90
9125;DHT22;4597;48.730;9.114;2022-09-16T17:41:59;15.00;99.90
9125;DHT22;4597;48.730;9.114;2022-09-16T17:44:24;15.00;99.90
9125;DHT22;4597;48.730;9.114;2022-09-16T17:46:51;15.00;99.90
9125;DHT22;4597;48.730;9.114;2022-09-16T17:49:19;14.90;99.90
9125;DHT22;4597;48.730;9.114;2022-09-16T17:51:49;14.90;99.90
9125;DHT22;4597;48.730;9.114;2022-09-16T17:54:14;14.80;99.90
9125;DHT22;4597;48.730;9.114;2022-09-16T17:56:41;14.80;99.90
9125;DHT22;4597;48.730;9.114;2022-09-16T17:59:08;14.80;99.90
9125;DHT22;4597;48.730;9.114;2022-09-16T18:01:33;14.70;99.90
9125;DHT22;4597;48.730;9.114;2022-09-16T18:03:59;14.70;99.90
9125;DHT22;4597;48.730;9.114;2022-09-16T18:06:38;14.70;99.90
9125;DHT22;4597;48.730;9.114;2022-09-16T18:09:04;14.70;99.90
9125;DHT22;4597;48.730;9.114;2022-09-16T18:11:32;14.70;99.90
9125;DHT22;4597;48.730;9.114;2022-09-16T18:13:59;14.70;99.90
9125;DHT22;4597;48.730;9.114;2022-09-16T18:16:26;14.60;99.90
9125;DHT22;4597;48.730;9.114;2022-09-16T18:18:53;14.60;99.90
9125;DHT22;4597;48.730;9.114;2022-09-16T18:21:20;14.60;99.90
9125;DHT22;4597;48.730;9.114;2022-09-16T18:23:47;14.50;99.90
9125;DHT22;4597;48.730;9.114;2022-09-16T18:26:15;14.50;99.90
9125;DHT22;4597;48.730;9.114;2022-09-16T18:28:42;14.50;99.90
9125;DHT22;4597;48.730;9.114;2022-09-16T18:31:14;14.50;99.90
9125;DHT22;4597;48.730;9.114;2022-09-16T18:33:40;14.40;99.90
9125;DHT22;4597;48.730;9.114;2022-09-16T18:36:08;14.40;99.90
9125;DHT22;4597;48.730;9.114;2022-09-16T18:38:35;14.40;99.90
9125;DHT22;4597;48.730;9.114;2022-09-16T18:41:12;14.40;99.90
9125;DHT22;4597;48.730;9.114;2022-09-16T18:43:39;14.30;99.90
9125;DHT22;4597;48.730;9.114;2022-09-16T18:46:07;14.30;99.90
9125;DHT22;4597;48.730;9.114;2022-09-16T18:48:32;14.30;99.90
9125;DHT22;4597;48.730;9.114;2022-09-16T18:50:58;14.30;99.90
9125;DHT22;4597;48.730;9.114;2022-09-16T18:53:24;14.20;99.90
9125;DHT22;4597;48.730;9.114;2022-09-16T18:55:54;14.20;99.90
9125;DHT22;4597;48.730;9.114;2022-09-16T18:58:19;14.10;99.90
9125;DHT22;4597;48.730;9.114;2022-09-16T19:00:45;14.00;99.90
9125;DHT22;4597;48.730;9.114;2022-09-16T19:03:13;14.00;99.90
9125;DHT22;4597;48.730;9.114;2022-09-16T19:05:39;14.00;99.90
9125;DHT22;4597;48.730;9.114;2022-09-16T19:08:05;14.00;99.90
9125;DHT22;4597;48.730;9.114;2022-09-16T19:10:30;13.90;99.90
9125;DHT22;4597;48.730;9.114;2022-09-16T19:12:56;13.90;99.90
9125;DHT22;4597;48.730;9.114;2022-09-16T19:15:22;13.80;99.90
9125;DHT22;4597;48.730;9.114;2022-09-16T19:17:48;13.70;99.90
9125;DHT22;4597;48.730;9.114;2022-09-16T19:20:13;13.70;99.90